Temp: 16.4°C   Baro: 1016.1mb
  Wind: 0.0mph   Dir: W (281°)
  Rain: 0.6mm (0.0mm/hr)
  Solar: 132W/m2  Hum: 72%
 
Bath Spa Weather Station Historical Data
Daily Summary for August 5, 2020 Units:  Metric    English   Both
Daily Weekly Monthly Yearly Custom
  High: Low: Average:
Temperature: 17.7 °C 8.6 °C 13 °C
Dew Point: 11.9 °C 7.9 °C 10 °C
Humidity: 94% 62% 80%
Wind Speed: 22.9km/h 0km/h 6km/h
Wind Gust: 32.2km/h - -
Wind- - WNW
Pressure: 1022.9 hPa 1020.9 hPa -
Precipitation: 0.25 mm    
Historical Graphs
 
 
Tabular Data for August 5, 2020
Time Temperature Dew Point Pressure Wind Wind Speed Wind Gust Humidity Rainfall Rate (Hourly) solar
00:04 11.4 °C 9.7 °C 1021.2 hPa West 1.9 km/h 4.8 km/h 86.2% 0 mm 0 W/m2
00:09 11.3 °C 9.6 °C 1020.9 hPa West 0.6 km/h 3.2 km/h 86% 0 mm 0 W/m2
00:14 11.3 °C 9.7 °C 1021.2 hPa West 2.1 km/h 4.8 km/h 86.8% 0 mm 0 W/m2
00:19 11.3 °C 9.7 °C 1021.2 hPa West 2.6 km/h 4.8 km/h 87% 0 mm 0 W/m2
00:24 11.2 °C 9.6 °C 1021.2 hPa WNW 4.3 km/h 6.4 km/h 87% 0 mm 0 W/m2
00:29 11.2 °C 9.6 °C 1020.9 hPa WNW 2.9 km/h 6.4 km/h 87% 0 mm 0 W/m2
00:34 11.1 °C 9.5 °C 1020.9 hPa WNW 2.9 km/h 4.8 km/h 87% 0 mm 0 W/m2
00:39 11 °C 9.3 °C 1020.9 hPa WNW 3.2 km/h 4.8 km/h 87% 0 mm 0 W/m2
00:44 10.8 °C 9.2 °C 1020.9 hPa WNW 1.8 km/h 4.8 km/h 87% 0 mm 0 W/m2
00:49 10.8 °C 9.2 °C 1020.9 hPa WNW 0.8 km/h 3.2 km/h 87.2% 0 mm 0 W/m2
00:54 10.7 °C 9.3 °C 1021.2 hPa WNW 3.2 km/h 4.8 km/h 88% 0 mm 0 W/m2
00:59 10.7 °C 9.3 °C 1021.2 hPa WNW 3.9 km/h 6.4 km/h 88% 0 mm 0 W/m2
01:04 10.6 °C 9.2 °C 1021.2 hPa WNW 3.2 km/h 6.4 km/h 88% 0 mm 0 W/m2
01:09 10.6 °C 9.2 °C 1021.2 hPa WNW 3.5 km/h 4.8 km/h 88% 0 mm 0 W/m2
01:14 10.5 °C 9.1 °C 1021.2 hPa WNW 3.2 km/h 4.8 km/h 88% 0 mm 0 W/m2
01:19 10.4 °C 9.1 °C 1021.2 hPa WNW 2.6 km/h 4.8 km/h 88.2% 0 mm 0 W/m2
01:24 10.4 °C 9.1 °C 1021.2 hPa WNW 3.9 km/h 6.4 km/h 88.6% 0 mm 0 W/m2
01:29 10.4 °C 9.2 °C 1020.9 hPa WNW 2.6 km/h 4.8 km/h 89% 0 mm 0 W/m2
01:34 10.3 °C 9.2 °C 1020.9 hPa WNW 1.1 km/h 4.8 km/h 89% 0 mm 0 W/m2
01:39 10.2 °C 9.1 °C 1021.2 hPa WNW 3.2 km/h 4.8 km/h 89% 0 mm 0 W/m2
01:44 10.2 °C 9 °C 1021.2 hPa WNW 2.6 km/h 4.8 km/h 89% 0 mm 0 W/m2
01:49 10.2 °C 9 °C 1021.2 hPa WNW 0.8 km/h 4.8 km/h 89% 0 mm 0 W/m2
01:54 10.2 °C 9 °C 1021.2 hPa WNW 1.6 km/h 3.2 km/h 89% 0 mm 0 W/m2
01:59 10.2 °C 9 °C 1021.2 hPa WNW 3.5 km/h 4.8 km/h 89.2% 0 mm 0 W/m2
02:04 10.2 °C 9.1 °C 1020.9 hPa WNW 1 km/h 4.8 km/h 90% 0 mm 0 W/m2
02:09 10.2 °C 9.1 °C 1020.9 hPa Calm     90% 0 mm 0 W/m2
02:14 10.1 °C 9 °C 1020.9 hPa WNW 0.6 km/h 1.6 km/h 90% 0 mm 0 W/m2
02:19 10 °C 8.9 °C 1020.9 hPa Calm   1.6 km/h 90% 0 mm 0 W/m2
02:24 9.9 °C 8.8 °C 1020.9 hPa Calm   1.6 km/h 90% 0 mm 0 W/m2
02:29 10 °C 8.9 °C 1020.9 hPa WNW 2.4 km/h 4.8 km/h 90% 0 mm 0 W/m2
02:34 10.2 °C 9.1 °C 1020.9 hPa WNW 2.9 km/h 4.8 km/h 90% 0 mm 0 W/m2
02:39 10.2 °C 9.1 °C 1020.9 hPa WNW 0.3 km/h 4.8 km/h 90% 0 mm 0 W/m2
02:44 10.2 °C 9.1 °C 1020.9 hPa Calm     90% 0 mm 0 W/m2
02:49 9.9 °C 8.8 °C 1020.9 hPa Calm     90% 0 mm 0 W/m2
02:54 9.8 °C 8.7 °C 1020.9 hPa WNW 0.3 km/h 3.2 km/h 90% 0 mm 0 W/m2
02:59 9.8 °C 8.8 °C 1020.9 hPa WNW 0.6 km/h 3.2 km/h 90.6% 0 mm 0 W/m2
03:04 9.8 °C 8.8 °C 1021.2 hPa Calm     91% 0 mm 0 W/m2
03:09 9.7 °C 8.7 °C 1021.2 hPa WNW 1.4 km/h 3.2 km/h 91% 0 mm 0 W/m2
03:14 9.6 °C 8.7 °C 1021.2 hPa WNW 0.3 km/h 3.2 km/h 91% 0 mm 0 W/m2
03:19 9.4 °C 8.5 °C 1020.9 hPa WNW 1.1 km/h 3.2 km/h 91% 0 mm 0 W/m2
03:24 9.4 °C 8.5 °C 1020.9 hPa WNW 1.4 km/h 3.2 km/h 91% 0 mm 0 W/m2
03:29 9.5 °C 8.6 °C 1020.9 hPa WNW 2.6 km/h 4.8 km/h 91% 0 mm 0 W/m2
03:34 9.6 °C 8.7 °C 1020.9 hPa WNW 3.2 km/h 4.8 km/h 91% 0 mm 0 W/m2
03:39 9.6 °C 8.7 °C 1020.9 hPa WNW 1.8 km/h 4.8 km/h 91% 0 mm 0 W/m2
03:44 9.6 °C 8.8 °C 1020.9 hPa WNW 0.6 km/h 3.2 km/h 91.2% 0 mm 0 W/m2
03:49 9.5 °C 8.8 °C 1020.9 hPa Calm     91.8% 0 mm 0 W/m2
03:54 9.4 °C 8.6 °C 1020.9 hPa Calm     91.2% 0 mm 0 W/m2
03:58 9.3 °C 8.4 °C 1020.9 hPa WNW 0.8 km/h 1.6 km/h 91% 0 mm 0 W/m2
04:04 9.2 °C 8.3 °C 1020.9 hPa WNW 0.6 km/h 3.2 km/h 91% 0 mm 0 W/m2
04:09 9.2 °C 8.4 °C 1020.9 hPa Calm   1.6 km/h 91.8% 0 mm 0 W/m2
04:14 9.2 °C 8.5 °C 1020.9 hPa Calm     92% 0 mm 0 W/m2
04:19 9.2 °C 8.5 °C 1020.9 hPa Calm     92% 0 mm 0 W/m2
04:24 9.1 °C 8.4 °C 1020.9 hPa Calm     92% 0 mm 0 W/m2
04:29 9.1 °C 8.4 °C 1020.9 hPa Calm     92% 0 mm 0 W/m2
04:34 9 °C 8.3 °C 1020.9 hPa Calm     92% 0 mm 0 W/m2
04:39 8.9 °C 8.2 °C 1020.9 hPa WNW 0.6 km/h 3.2 km/h 92% 0 mm 0 W/m2
04:44 8.9 °C 8.2 °C 1020.9 hPa WNW 1.4 km/h 3.2 km/h 92% 0 mm 0 W/m2
04:49 8.9 °C 8.2 °C 1020.9 hPa WNW 2.1 km/h 3.2 km/h 92% 0 mm 0 W/m2
04:54 8.9 °C 8.2 °C 1020.9 hPa WNW 0.3 km/h 3.2 km/h 92% 0 mm 0 W/m2
04:59 8.8 °C 8.1 °C 1020.9 hPa WNW 0.3 km/h 3.2 km/h 92% 0 mm 0 W/m2
05:04 8.7 °C 8 °C 1020.9 hPa Calm     92% 0 mm 0 W/m2
05:09 8.7 °C 7.9 °C 1020.9 hPa Calm     92% 0 mm 0 W/m2
05:14 8.7 °C 7.9 °C 1020.9 hPa Calm     92% 0 mm 0 W/m2
05:19 8.6 °C 7.9 °C 1020.9 hPa Calm     92% 0 mm 0 W/m2
05:24 8.6 °C 7.9 °C 1020.9 hPa WNW 0.6 km/h 3.2 km/h 92% 0 mm 0 W/m2
05:29 8.7 °C 7.9 °C 1021.2 hPa WNW 3.2 km/h 4.8 km/h 92% 0 mm 0 W/m2
05:34 8.9 °C 8.2 °C 1021.2 hPa WNW 4 km/h 6.4 km/h 92.3% 0 mm 0 W/m2
05:39 9.2 °C 8.6 °C 1021.2 hPa WNW 5.1 km/h 6.4 km/h 93% 0 mm 0 W/m2
05:44 9.3 °C 8.7 °C 1021.2 hPa WNW 3.5 km/h 9.7 km/h 93% 0 mm 0 W/m2
05:49 9.6 °C 8.9 °C 1021.2 hPa WNW 5.1 km/h 9.7 km/h 93% 0 mm 0 W/m2
05:54 9.8 °C 9.2 °C 1021.2 hPa WNW 3.4 km/h 8 km/h 93% 0 mm 0 W/m2
05:59 9.7 °C 9.1 °C 1021.2 hPa WNW 2.9 km/h 4.8 km/h 93% 0 mm 0 W/m2
06:04 9.4 °C 8.8 °C 1021.2 hPa WNW 1.1 km/h 4.8 km/h 93% 0 mm 0 W/m2
06:09 9.3 °C 8.7 °C 1021.2 hPa Calm   1.6 km/h 93% 0 mm 0 W/m2
06:14 9.2 °C 8.6 °C 1021.2 hPa WNW 1.3 km/h 3.2 km/h 93% 0 mm 0 W/m2
06:19 9.1 °C 8.4 °C 1021.2 hPa WNW 3.2 km/h 4.8 km/h 93% 0 mm 0 W/m2
06:24 9.1 °C 8.5 °C 1021.2 hPa WNW 1.9 km/h 4.8 km/h 93% 0 mm 0 W/m2
06:29 9.2 °C 8.5 °C 1021.2 hPa Calm   3.2 km/h 93% 0 mm 0 W/m2
06:34 8.9 °C 8.3 °C 1021.2 hPa Calm     93% 0 mm 5 W/m2
06:39 8.8 °C 8.2 °C 1021.2 hPa WNW 1.3 km/h 3.2 km/h 93% 0 mm 7 W/m2
06:44 8.7 °C 8.1 °C 1021.2 hPa WNW 2.1 km/h 4.8 km/h 93% 0 mm 11 W/m2
06:49 8.7 °C 8.1 °C 1021.2 hPa WNW 2.1 km/h 3.2 km/h 93% 0 mm 12 W/m2
06:54 8.7 °C 8.1 °C 1021.6 hPa WNW 2.9 km/h 4.8 km/h 93% 0 mm 14 W/m2
06:59 8.8 °C 8.2 °C 1021.6 hPa WNW 0.8 km/h 4.8 km/h 93% 0 mm 16 W/m2
07:04 8.8 °C 8.2 °C 1021.6 hPa WNW 0.6 km/h 3.2 km/h 93% 0 mm 18 W/m2
07:08 8.8 °C 8.2 °C 1021.6 hPa WNW 0.3 km/h 3.2 km/h 93% 0 mm 19 W/m2
07:14 8.8 °C 8.2 °C 1021.6 hPa WNW 1 km/h 3.2 km/h 93% 0 mm 21 W/m2
07:19 8.8 °C 8.2 °C 1021.6 hPa WNW 0.8 km/h 3.2 km/h 93% 0 mm 23 W/m2
07:24 9.1 °C 8.5 °C 1021.6 hPa WNW 0.6 km/h 1.6 km/h 93.4% 0 mm 25 W/m2
07:29 9.2 °C 8.8 °C 1021.6 hPa Calm     94% 0.25 mm 25 W/m2
07:34 9.2 °C 8.8 °C 1021.6 hPa Calm   1.6 km/h 94% 0.25 mm 26 W/m2
07:39 9.5 °C 9.1 °C 1021.9 hPa WNW 2.3 km/h 4.8 km/h 94% 0.25 mm 30 W/m2
07:43 9.8 °C 9.3 °C 1021.9 hPa WNW 0.3 km/h 4.8 km/h 94% 0.25 mm 33 W/m2
07:49 9.9 °C 9.6 °C 1021.9 hPa WNW 3.2 km/h 6.4 km/h 94% 0.25 mm 42 W/m2
07:54 10.2 °C 9.8 °C 1021.9 hPa WNW 4.8 km/h 6.4 km/h 94% 0.25 mm 56 W/m2
07:59 10.3 °C 9.9 °C 1021.9 hPa WNW 5.3 km/h 8 km/h 94% 0.25 mm 72 W/m2
08:04 10.5 °C 10.1 °C 1021.9 hPa WNW 4.5 km/h 8 km/h 94% 0.25 mm 95 W/m2
08:09 10.8 °C 10.3 °C 1021.9 hPa WNW 5.8 km/h 9.7 km/h 93.8% 0.25 mm 118 W/m2
08:14 10.9 °C 10.3 °C 1021.9 hPa WNW 3.5 km/h 8 km/h 93% 0.25 mm 135 W/m2
08:19 11.3 °C 10.7 °C 1021.9 hPa WNW 1.1 km/h 4.8 km/h 93% 0.25 mm 172 W/m2
08:23 11.5 °C 10.8 °C 1021.9 hPa WNW 2.7 km/h 6.4 km/h 92.8% 0.25 mm 216 W/m2
08:29 11.8 °C 11 °C 1021.9 hPa WNW 1.8 km/h 6.4 km/h 92.2% 0.25 mm 281 W/m2
08:34 12.1 °C 11.2 °C 1021.9 hPa WNW 5.1 km/h 11.3 km/h 91.6% 0 mm 322 W/m2
08:39 12.2 °C 11.3 °C 1021.9 hPa West 6 km/h 12.9 km/h 90.6% 0 mm 330 W/m2
08:44 12.4 °C 11.2 °C 1021.9 hPa West 10.3 km/h 17.7 km/h 89% 0 mm 318 W/m2
08:49 12.7 °C 11.2 °C 1021.9 hPa NW 8.4 km/h 19.3 km/h 87.6% 0 mm 283 W/m2
08:54 12.6 °C 10.8 °C 1021.9 hPa WNW 8.9 km/h 20.9 km/h 85.8% 0 mm 295 W/m2
08:59 12.8 °C 10.8 °C 1022.2 hPa WNW 7.1 km/h 12.9 km/h 85% 0 mm 332 W/m2
09:04 13.1 °C 11 °C 1022.2 hPa NW 8.9 km/h 16.1 km/h 84.6% 0 mm 346 W/m2
09:09 13.2 °C 10.8 °C 1022.2 hPa NW 7.9 km/h 17.7 km/h 82.8% 0 mm 313 W/m2
09:14 13.3 °C 10.6 °C 1022.2 hPa NW 9 km/h 17.7 km/h 81.4% 0 mm 315 W/m2
09:19 13.3 °C 10.3 °C 1022.2 hPa NW 9 km/h 17.7 km/h 79.4% 0 mm 334 W/m2
09:24 13.6 °C 10.5 °C 1022.2 hPa NNW 6.3 km/h 12.9 km/h 79.4% 0 mm 357 W/m2
09:29 13.7 °C 10.4 °C 1022.2 hPa WNW 9.5 km/h 17.7 km/h 78.4% 0 mm 390 W/m2
09:34 13.7 °C 10.4 °C 1022.2 hPa WNW 10.1 km/h 16.1 km/h 78% 0 mm 431 W/m2
09:39 13.6 °C 10.3 °C 1022.6 hPa WNW 14.5 km/h 22.5 km/h 77.8% 0 mm 225 W/m2
09:44 13.5 °C 10.1 °C 1022.6 hPa NW 8.5 km/h 19.3 km/h 77.2% 0 mm 478 W/m2
09:49 13.6 °C 10.2 °C 1022.6 hPa WNW 8.4 km/h 17.7 km/h 77.6% 0 mm 190 W/m2
09:54 13.8 °C 10.5 °C 1022.6 hPa WNW 6.8 km/h 14.5 km/h 77.8% 0 mm 195 W/m2
09:59 14.1 °C 10.7 °C 1022.6 hPa NW 5.6 km/h 17.7 km/h 77.5% 0 mm 548 W/m2
10:04 14.2 °C 10.6 °C 1022.2 hPa WNW 8.9 km/h 17.7 km/h 76.4% 0 mm 531 W/m2
10:09 14.3 °C 10.4 °C 1022.2 hPa NW 10.3 km/h 19.3 km/h 75% 0 mm 515 W/m2
10:14 14.5 °C 10.4 °C 1022.2 hPa NNW 8.4 km/h 12.9 km/h 74% 0 mm 508 W/m2
10:19 14.6 °C 10.4 °C 1022.6 hPa WNW 10.6 km/h 17.7 km/h 73.8% 0 mm 538 W/m2
10:24 14.8 °C 10.3 °C 1022.6 hPa WNW 12.2 km/h 20.9 km/h 72.4% 0 mm 580 W/m2
10:29 14.8 °C 10.2 °C 1022.6 hPa NW 8 km/h 19.3 km/h 71.6% 0 mm 619 W/m2
10:34 14.9 °C 10.2 °C 1022.6 hPa WNW 9 km/h 16.1 km/h 71% 0 mm 527 W/m2
10:39 14.8 °C 9.9 °C 1022.2 hPa WNW 11.3 km/h 22.5 km/h 70% 0 mm 130 W/m2
10:44 14.6 °C 9.7 °C 1022.6 hPa WNW 11.3 km/h 22.5 km/h 70% 0 mm 114 W/m2
10:49 14.6 °C 9.7 °C 1022.6 hPa NW 10 km/h 22.5 km/h 70% 0 mm 592 W/m2
10:54 14.7 °C 9.9 °C 1022.6 hPa NW 7.9 km/h 16.1 km/h 70.8% 0 mm 573 W/m2
10:59 14.9 °C 10.3 °C 1022.6 hPa NW 7.6 km/h 14.5 km/h 71.2% 0 mm 573 W/m2
11:04 15.1 °C 10 °C 1022.9 hPa WNW 14.5 km/h 24.1 km/h 69.4% 0 mm 635 W/m2
11:09 15 °C 9.7 °C 1022.9 hPa WNW 12.2 km/h 20.9 km/h 68.6% 0 mm 707 W/m2
11:14 15.2 °C 10.1 °C 1022.9 hPa WNW 9.3 km/h 22.5 km/h 69.6% 0 mm 213 W/m2
11:19 15 °C 9.9 °C 1022.9 hPa WNW 8 km/h 20.9 km/h 69.5% 0 mm 118 W/m2
11:24 14.8 °C 9.8 °C 1022.9 hPa WNW 7.1 km/h 20.9 km/h 69.8% 0 mm 524 W/m2
11:29 15.1 °C 10.1 °C 1022.9 hPa WNW 9 km/h 20.9 km/h 69.8% 0 mm 524 W/m2
11:34 15.1 °C 9.7 °C 1022.6 hPa WNW 13.5 km/h 24.1 km/h 68% 0 mm 524 W/m2
11:39 14.8 °C 9.5 °C 1022.9 hPa NW 8.9 km/h 24.1 km/h 68.4% 0 mm 863 W/m2
11:44 15.2 °C 9.9 °C 1022.9 hPa NW 9 km/h 20.9 km/h 68.4% 0 mm 396 W/m2
11:49 15.1 °C 9.6 °C 1022.9 hPa WNW 9.3 km/h 19.3 km/h 67.2% 0 mm 323 W/m2
11:54 15.1 °C 9.7 °C 1022.9 hPa WNW 9.5 km/h 19.3 km/h 67.8% 0 mm 202 W/m2
11:59 14.9 °C 9.6 °C 1022.9 hPa WNW 7.1 km/h 19.3 km/h 68.2% 0 mm 214 W/m2
12:04 15.1 °C 9.8 °C 1022.9 hPa NW 10 km/h 17.7 km/h 68.6% 0 mm 251 W/m2
12:09 15 °C 9.6 °C 1022.9 hPa West 8.4 km/h 17.7 km/h 68% 0 mm 867 W/m2
12:14 15.3 °C 9.7 °C 1022.6 hPa WNW 10.8 km/h 19.3 km/h 66.6% 0 mm 867 W/m2
12:19 15.3 °C 9.7 °C 1022.6 hPa NW 6.8 km/h 19.3 km/h 66.8% 0 mm 211 W/m2
12:24 15.4 °C 10.3 °C 1022.6 hPa WNW 7.6 km/h 16.1 km/h 69.3% 0 mm 729 W/m2
12:29 15.8 °C 10.6 °C 1022.6 hPa WNW 7.6 km/h 16.1 km/h 69% 0 mm 766 W/m2
12:34 16.2 °C 11 °C 1022.6 hPa WNW 10.6 km/h 16.1 km/h 69% 0 mm 795 W/m2
12:39 16.2 °C 10.8 °C 1022.6 hPa NW 6.8 km/h 14.5 km/h 68.2% 0 mm 795 W/m2
12:44 16 °C 10.8 °C 1022.6 hPa WNW 9.7 km/h 16.1 km/h 69% 0 mm 248 W/m2
12:49 15.7 °C 10.7 °C 1022.6 hPa NW 8.5 km/h 16.1 km/h 69.8% 0 mm 341 W/m2
12:54 15.7 °C 10.4 °C 1022.6 hPa NW 7.4 km/h 16.1 km/h 68.8% 0 mm 276 W/m2
12:59 15.7 °C 10.4 °C 1022.6 hPa WNW 7.4 km/h 16.1 km/h 68.8% 0 mm 302 W/m2
13:04 15.7 °C 10.6 °C 1022.6 hPa West 7.2 km/h 17.7 km/h 69% 0 mm 258 W/m2
13:09 15.8 °C 10.7 °C 1022.6 hPa NW 5.8 km/h 16.1 km/h 69.4% 0 mm 258 W/m2
13:14 15.8 °C 10.7 °C 1022.2 hPa WNW 10.3 km/h 16.1 km/h 69% 0 mm 946 W/m2
13:19 16 °C 10.8 °C 1022.2 hPa WNW 5.5 km/h 14.5 km/h 68.8% 0 mm 316 W/m2
13:24 16.2 °C 10.9 °C 1022.2 hPa WNW 8 km/h 17.7 km/h 68.5% 0 mm 387 W/m2
13:29 16.2 °C 10.6 °C 1022.2 hPa WNW 6 km/h 11.3 km/h 67% 0 mm 360 W/m2
13:34 16.5 °C 10.7 °C 1022.2 hPa WNW 8 km/h 14.5 km/h 66.6% 0 mm 269 W/m2
13:39 16.3 °C 10.2 °C 1022.2 hPa WNW 3.4 km/h 11.3 km/h 65.2% 0 mm 225 W/m2
13:44 16.3 °C 10.3 °C 1022.2 hPa West 4.3 km/h 14.5 km/h 65.2% 0 mm 193 W/m2
13:49 16.2 °C 10.1 °C 1022.2 hPa West 9 km/h 19.3 km/h 65% 0 mm 176 W/m2
13:54 16.1 °C 10.1 °C 1022.2 hPa WNW 9.3 km/h 16.1 km/h 65.2% 0 mm 292 W/m2
13:59 16.6 °C 10.4 °C 1022.2 hPa West 9.2 km/h 19.3 km/h 64.6% 0 mm 949 W/m2
14:04 16.8 °C 10.2 °C 1022.2 hPa West 14.2 km/h 19.3 km/h 63% 0 mm 227 W/m2
14:09 16.5 °C 10.2 °C 1022.2 hPa NW 8.4 km/h 19.3 km/h 64.2% 0 mm 206 W/m2
14:14 16.4 °C 10.4 °C 1022.2 hPa WNW 5.8 km/h 17.7 km/h 65.8% 0 mm 821 W/m2
14:19 16.7 °C 11 °C 1022.2 hPa West 9 km/h 20.9 km/h 66.8% 0 mm 821 W/m2
14:24 16.8 °C 10.8 °C 1022.2 hPa WNW 9 km/h 20.9 km/h 65.2% 0 mm 779 W/m2
14:28 16.9 °C 10.7 °C 1022.2 hPa NW 11.3 km/h 20.9 km/h 64.8% 0 mm 283 W/m2
14:34 16.7 °C 10.2 °C 1022.2 hPa WNW 10.6 km/h 20.9 km/h 63.8% 0 mm 325 W/m2
14:39 16.7 °C 10.3 °C 1022.2 hPa WNW 12.1 km/h 20.9 km/h 64.2% 0 mm 211 W/m2
14:44 16.5 °C 10.4 °C 1022.2 hPa WSW 11.3 km/h 19.3 km/h 65% 0 mm 171 W/m2
14:49 16.4 °C 10.7 °C 1022.2 hPa WNW 6.6 km/h 19.3 km/h 66.8% 0 mm 232 W/m2
14:54 16.7 °C 11 °C 1022.2 hPa WNW 12.7 km/h 24.1 km/h 66.8% 0 mm 773 W/m2
14:59 17.1 °C 11 °C 1022.2 hPa WNW 10.5 km/h 20.9 km/h 65.4% 0 mm 693 W/m2
15:04 17.2 °C 10.5 °C 1022.2 hPa West 19 km/h 24.1 km/h 62.8% 0 mm 680 W/m2
15:09 17.3 °C 10.4 °C 1022.2 hPa WNW 14.6 km/h 27.4 km/h 62% 0 mm 742 W/m2
15:14 17.3 °C 10.5 °C 1022.2 hPa WNW 10.6 km/h 30.6 km/h 62.4% 0 mm 281 W/m2
15:19 17.2 °C 11.1 °C 1022.2 hPa WNW 11.9 km/h 24.1 km/h 65% 0 mm 698 W/m2
15:24 17.6 °C 11.3 °C 1021.9 hPa West 12.2 km/h 20.9 km/h 64.6% 0 mm 687 W/m2
15:29 17.7 °C 11.3 °C 1021.9 hPa West 10.9 km/h 20.9 km/h 64.2% 0 mm 686 W/m2
15:34 17.7 °C 11.7 °C 1021.9 hPa West 16.9 km/h 30.6 km/h 66% 0 mm 638 W/m2
15:39 17.6 °C 11.9 °C 1021.9 hPa WNW 11.6 km/h 22.5 km/h 67.2% 0 mm 629 W/m2
15:44 17.2 °C 11.2 °C 1021.9 hPa WNW 12.6 km/h 22.5 km/h 65.8% 0 mm 517 W/m2
15:49 17.1 °C 11.3 °C 1021.9 hPa West 16.4 km/h 20.9 km/h 66.8% 0 mm 631 W/m2
15:54 17.2 °C 11.6 °C 1021.9 hPa WNW 10.8 km/h 22.5 km/h 67.3% 0 mm 596 W/m2
15:59 17.3 °C 11.3 °C 1021.9 hPa WNW 11.6 km/h 22.5 km/h 65.8% 0 mm 589 W/m2
16:04 17.4 °C 11.6 °C 1021.9 hPa WNW 15.8 km/h 25.7 km/h 66.4% 0 mm 587 W/m2
16:09 17.4 °C 11.7 °C 1021.9 hPa West 22.9 km/h 29 km/h 66.8% 0 mm 654 W/m2
16:14 17.2 °C 11.6 °C 1021.9 hPa NW 13.2 km/h 29 km/h 67.4% 0 mm 645 W/m2
16:19 17.2 °C 11.6 °C 1021.9 hPa West 10.9 km/h 27.4 km/h 67.4% 0 mm 573 W/m2
16:24 17.3 °C 11.8 °C 1021.9 hPa WNW 9.8 km/h 22.5 km/h 67.8% 0 mm 533 W/m2
16:29 17.4 °C 11.8 °C 1021.9 hPa West 11.4 km/h 25.7 km/h 67.2% 0 mm 497 W/m2
16:34 17 °C 11.3 °C 1021.9 hPa West 16.7 km/h 27.4 km/h 67% 0 mm 489 W/m2
16:39 16.9 °C 11.3 °C 1021.6 hPa West 10.6 km/h 20.9 km/h 67.2% 0 mm 503 W/m2
16:44 17.1 °C 11.5 °C 1021.6 hPa WNW 9 km/h 24.1 km/h 67.4% 0 mm 541 W/m2
16:49 17.2 °C 11.6 °C 1021.6 hPa West 15.8 km/h 25.7 km/h 67.5% 0 mm 568 W/m2
16:54 17.2 °C 11.7 °C 1021.6 hPa NW 11.9 km/h 29 km/h 67.6% 0 mm 568 W/m2
16:59 17.1 °C 11.4 °C 1021.6 hPa West 14.2 km/h 29 km/h 67.2% 0 mm 251 W/m2
17:04 16.8 °C 11.5 °C 1021.6 hPa WNW 16.1 km/h 24.1 km/h 68.8% 0 mm 218 W/m2
17:09 16.6 °C 11.5 °C 1021.6 hPa West 18.3 km/h 25.7 km/h 69.8% 0 mm 192 W/m2
17:14 16.4 °C 11.4 °C 1021.6 hPa WNW 14.6 km/h 24.1 km/h 70.4% 0 mm 462 W/m2
17:19 16.6 °C 11.7 °C 1021.6 hPa WNW 13.8 km/h 24.1 km/h 70.6% 0 mm 466 W/m2
17:24 16.8 °C 11.8 °C 1021.6 hPa West 13.4 km/h 25.7 km/h 70% 0 mm 244 W/m2
17:29 16.7 °C 11.8 °C 1021.6 hPa WNW 18 km/h 25.7 km/h 71% 0 mm 445 W/m2
17:34 16.5 °C 11.7 °C 1021.6 hPa WNW 16.1 km/h 32.2 km/h 71% 0 mm 385 W/m2
17:39 16.6 °C 11.9 °C 1021.6 hPa West 18.7 km/h 25.7 km/h 71.6% 0 mm 373 W/m2
17:44 16.6 °C 11.8 °C 1021.2 hPa West 10.9 km/h 27.4 km/h 71.3% 0 mm 348 W/m2
17:49 16.6 °C 11.9 °C 1021.2 hPa West 16.1 km/h 30.6 km/h 71.8% 0 mm 350 W/m2
17:54 16.3 °C 11.7 °C 1021.2 hPa West 17.2 km/h 25.7 km/h 72% 0 mm 278 W/m2
17:59 16.3 °C 11.7 °C 1021.2 hPa WNW 14.5 km/h 27.4 km/h 72% 0 mm 276 W/m2
18:04 16.2 °C 11.6 °C 1021.2 hPa West 10 km/h 24.1 km/h 72% 0 mm 315 W/m2
18:09 16.2 °C 11.6 °C 1021.2 hPa WNW 11.3 km/h 22.5 km/h 72% 0 mm 287 W/m2
18:14 16.2 °C 11.7 °C 1021.2 hPa West 10.5 km/h 19.3 km/h 72.2% 0 mm 216 W/m2
18:19 16.2 °C 11.6 °C 1021.2 hPa West 9.7 km/h 22.5 km/h 72% 0 mm 176 W/m2
18:24 16 °C 11.5 °C 1021.2 hPa West 9.3 km/h 22.5 km/h 72.4% 0 mm 160 W/m2
18:29 15.9 °C 11.3 °C 1021.2 hPa WNW 14.5 km/h 24.1 km/h 71.8% 0 mm 148 W/m2
18:34 15.8 °C 11.2 °C 1021.2 hPa WNW 11.3 km/h 25.7 km/h 72% 0 mm 135 W/m2
18:39 15.7 °C 11 °C 1021.2 hPa West 16.4 km/h 25.7 km/h 71.4% 0 mm 123 W/m2
18:44 15.6 °C 11.1 °C 1021.2 hPa WNW 7.7 km/h 22.5 km/h 72% 0 mm 109 W/m2
18:49 15.6 °C 11.2 °C 1021.2 hPa West 13.5 km/h 22.5 km/h 72.4% 0 mm 97 W/m2
18:54 15.4 °C 11.1 °C 1021.2 hPa West 11.3 km/h 22.5 km/h 73% 0 mm 79 W/m2
18:59 15.3 °C 11.1 °C 1021.2 hPa West 10.9 km/h 17.7 km/h 73% 0 mm 67 W/m2
19:04 15.3 °C 11.2 °C 1021.2 hPa WNW 9.3 km/h 17.7 km/h 74% 0 mm 53 W/m2
19:09 15.2 °C 11.2 °C 1021.2 hPa WNW 8 km/h 19.3 km/h 74% 0 mm 40 W/m2
19:14 15.2 °C 11.2 °C 1021.2 hPa West 9.3 km/h 16.1 km/h 74.2% 0 mm 33 W/m2
19:19 15.1 °C 11.2 °C 1021.2 hPa West 7.9 km/h 14.5 km/h 75% 0 mm 26 W/m2
19:24 14.9 °C 11 °C 1021.2 hPa West 7.9 km/h 12.9 km/h 75% 0 mm 19 W/m2
19:29 14.7 °C 10.8 °C 1021.2 hPa WNW 5.3 km/h 12.9 km/h 75% 0 mm 16 W/m2
19:34 14.6 °C 10.9 °C 1021.2 hPa WNW 5.3 km/h 9.7 km/h 75.8% 0 mm 12 W/m2
19:39 14.5 °C 10.8 °C 1021.2 hPa WNW 4 km/h 9.7 km/h 76% 0 mm 9 W/m2
19:44 14.4 °C 10.7 °C 1021.6 hPa WNW 4.5 km/h 9.7 km/h 76% 0 mm 5 W/m2
19:49 14.3 °C 10.6 °C 1021.6 hPa WNW 4.5 km/h 9.7 km/h 76% 0 mm 0 W/m2
19:54 14.2 °C 10.4 °C 1021.6 hPa WNW 5.1 km/h 9.7 km/h 76% 0 mm 0 W/m2
19:59 13.9 °C 10.4 °C 1021.6 hPa WNW 4.5 km/h 9.7 km/h 76.8% 0 mm 0 W/m2
20:04 13.8 °C 10.3 °C 1021.6 hPa WNW 3.4 km/h 6.4 km/h 77% 0 mm 0 W/m2
20:09 13.7 °C 10.3 °C 1021.6 hPa WNW 3.7 km/h 8 km/h 77.2% 0 mm 0 W/m2
20:14 13.7 °C 10.3 °C 1021.6 hPa WNW 4.5 km/h 8 km/h 78% 0 mm 0 W/m2
20:19 13.5 °C 10.3 °C 1021.6 hPa WNW 4.5 km/h 9.7 km/h 78.8% 0 mm 0 W/m2
20:24 13.4 °C 10.3 °C 1021.6 hPa WNW 3.9 km/h 9.7 km/h 79% 0 mm 0 W/m2
20:29 13.3 °C 10.3 °C 1021.6 hPa WNW 4.3 km/h 8 km/h 79.5% 0 mm 0 W/m2
20:34 13.3 °C 10.3 °C 1021.6 hPa WNW 3.4 km/h 6.4 km/h 80% 0 mm 0 W/m2
20:39 13.2 °C 10.3 °C 1021.6 hPa WNW 3.2 km/h 8 km/h 80% 0 mm 0 W/m2
20:44 13.1 °C 10.3 °C 1021.6 hPa WNW 4 km/h 8 km/h 80.2% 0 mm 0 W/m2
20:49 13.1 °C 10.4 °C 1021.9 hPa WNW 2.1 km/h 4.8 km/h 81% 0 mm 0 W/m2
20:54 13 °C 10.3 °C 1021.9 hPa WNW 3.2 km/h 8 km/h 81% 0 mm 0 W/m2
20:59 12.9 °C 10.3 °C 1021.9 hPa WNW 2.1 km/h 6.4 km/h 81.4% 0 mm 0 W/m2
21:04 12.9 °C 10.4 °C 1021.9 hPa WNW 1.4 km/h 4.8 km/h 82% 0 mm 0 W/m2
21:09 12.9 °C 10.4 °C 1021.9 hPa WNW 1.9 km/h 4.8 km/h 82% 0 mm 0 W/m2
21:14 12.8 °C 10.3 °C 1021.9 hPa WNW 4 km/h 6.4 km/h 82% 0 mm 0 W/m2
21:19 12.8 °C 10.3 °C 1021.9 hPa WNW 2.7 km/h 6.4 km/h 82% 0 mm 0 W/m2
21:24 12.7 °C 10.4 °C 1021.9 hPa WNW 4.2 km/h 8 km/h 83% 0 mm 0 W/m2
21:29 12.7 °C 10.4 °C 1021.9 hPa WNW 2.4 km/h 8 km/h 83% 0 mm 0 W/m2
21:34 12.6 °C 10.3 °C 1021.9 hPa WNW 2.7 km/h 4.8 km/h 83% 0 mm 0 W/m2
21:39 12.5 °C 10.2 °C 1021.9 hPa WNW 2.6 km/h 4.8 km/h 83% 0 mm 0 W/m2
21:44 12.4 °C 10.3 °C 1021.9 hPa WNW 2.4 km/h 4.8 km/h 84% 0 mm 0 W/m2
21:49 12.3 °C 10.2 °C 1021.9 hPa WNW 3.2 km/h 6.4 km/h 84% 0 mm 0 W/m2
21:54 12.2 °C 10.1 °C 1021.9 hPa WNW 2.6 km/h 4.8 km/h 84% 0 mm 0 W/m2
21:59 12.2 °C 10.2 °C 1021.9 hPa WNW 4 km/h 6.4 km/h 84.4% 0 mm 0 W/m2
22:04 12.1 °C 10.1 °C 1021.9 hPa WNW 3.5 km/h 8 km/h 85% 0 mm 0 W/m2
22:09 11.9 °C 9.9 °C 1021.9 hPa WNW 3.9 km/h 6.4 km/h 85% 0 mm 0 W/m2
22:14 11.9 °C 9.9 °C 1021.9 hPa WNW 3.2 km/h 8 km/h 85% 0 mm 0 W/m2
22:19 11.9 °C 10.1 °C 1021.9 hPa WNW 6.8 km/h 9.7 km/h 85.8% 0 mm 0 W/m2
22:24 11.9 °C 10.1 °C 1021.9 hPa WNW 4.8 km/h 8 km/h 86% 0 mm 0 W/m2
22:29 11.8 °C 10.1 °C 1021.9 hPa WNW 3.1 km/h 6.4 km/h 86% 0 mm 0 W/m2
22:34 11.8 °C 10 °C 1021.9 hPa WNW 3.7 km/h 6.4 km/h 86% 0 mm 0 W/m2
22:39 11.8 °C 10 °C 1021.9 hPa WNW 3.9 km/h 9.7 km/h 86% 0 mm 0 W/m2
22:44 11.8 °C 9.9 °C 1021.9 hPa WNW 2.4 km/h 9.7 km/h 86% 0 mm 0 W/m2
22:49 11.7 °C 9.9 °C 1021.9 hPa WNW 4.7 km/h 11.3 km/h 86% 0 mm 0 W/m2
22:54 11.7 °C 9.9 °C 1021.9 hPa WNW 3.1 km/h 6.4 km/h 86% 0 mm 0 W/m2
22:59 11.7 °C 9.9 °C 1021.9 hPa WNW 2.1 km/h 8 km/h 86% 0 mm 0 W/m2
23:03 11.7 °C 9.8 °C 1021.9 hPa WNW 2.7 km/h 6.4 km/h 86% 0 mm 0 W/m2
23:09 11.6 °C 9.8 °C 1021.9 hPa WNW 3.9 km/h 6.4 km/h 86% 0 mm 0 W/m2
23:14 11.6 °C 9.8 °C 1021.9 hPa WNW 4 km/h 8 km/h 86.2% 0 mm 0 W/m2
23:19 11.6 °C 10 °C 1021.9 hPa WNW 3.2 km/h 6.4 km/h 87% 0 mm 0 W/m2
23:24 11.6 °C 10 °C 1021.9 hPa WNW 2.7 km/h 6.4 km/h 87% 0 mm 0 W/m2
23:29 11.5 °C 9.9 °C 1021.6 hPa WNW 1.1 km/h 3.2 km/h 87% 0 mm 0 W/m2
23:34 11.4 °C 9.8 °C 1021.6 hPa WNW 1.1 km/h 3.2 km/h 87% 0 mm 0 W/m2
23:39 11.3 °C 9.8 °C 1021.6 hPa WNW 1.4 km/h 3.2 km/h 87% 0 mm 0 W/m2
23:44 11.2 °C 9.7 °C 1021.6 hPa WNW 0.6 km/h 3.2 km/h 87% 0 mm 0 W/m2
23:49 11.1 °C 9.5 °C 1021.6 hPa Calm     87% 0 mm 0 W/m2
23:54 11 °C 9.4 °C 1021.6 hPa Calm     87% 0 mm 0 W/m2
23:59 10.9 °C 9.3 °C 1021.6 hPa Calm   1.6 km/h 87% 0 mm 0 W/m2
Bath Spa Weather
Compliments of Weather Underground - 2 mb